METAR Data
IDs: Format: Raw Decoded Include TAF

Data at: 1950 UTC 17 Nov 2019

KSTL 171851Z 22007KT 10SM BKN120 OVC200 10/01 A2994 RMK AO2 SLP143 T01000006 $
KSTL 171751Z 21005KT 10SM BKN120 BKN200 10/01 A2997 RMK AO2 SLP154 T01000006 10100 20022 58027 $
KSTL 171651Z 18004KT 8SM BKN120 OVC200 07/01 A3000 RMK AO2 SLP164 T00720006 $
KSTL 171551Z 18006KT 8SM BKN120 OVC200 06/01 A3003 RMK AO2 SLP175 T00610006 $
KSTL 171451Z 15005KT 6SM HZ SCT120 OVC200 04/00 A3006 RMK AO2 SLP185 T00440000 55004 $
KSTL 171351Z 15006KT 5SM HZ BKN160 OVC240 03/00 A3005 RMK AO2 SLP184 T00330000 $
KSTL 171346Z 14006KT 5SM HZ BKN160 OVC240 03/00 A3005 RMK AO2 $
KSTL 171321Z 11005KT 4SM HZ BKN160 OVC240 03/00 A3005 RMK AO2 T00280000 $
KSTL 171251Z 15004KT 5SM HZ FEW120 SCT160 OVC240 03/M01 A3007 RMK AO2 SLP190 T00281006 $
KSTL 171151Z 22003KT 6SM HZ SCT160 OVC230 03/M01 A3009 RMK AO2 SLP196 T00281006 10028 21006 56012 $
KSTL 171051Z 11003KT 5SM BR OVC160 02/M01 A3009 RMK AO2 SLP196 T00171006 $
KSTL 170951Z 00000KT 6SM HZ BKN170 02/M01 A3011 RMK AO2 SLP201 T00171011 $
KSTL 170851Z 00000KT 6SM HZ BKN180 01/M02 A3012 RMK AO2 SLP206 T00111017 56017 $
KSTL 170751Z 18003KT 8SM BKN250 02/M02 A3014 RMK AO2 SLP211 T00171017 $
KSTL 170651Z 12006KT 7SM BKN250 01/M02 A3015 RMK AO2 SLP215 T00061022 $
KSTL 170551Z 14004KT 8SM SCT240 02/M02 A3017 RMK AO2 SLP223 T00221017 10044 20006 400891033 55002 $
KSTL 170451Z 11006KT 8SM BKN240 02/M02 A3016 RMK AO2 SLP221 T00171017 $
KSTL 170351Z 11006KT 8SM SCT250 02/M02 A3017 RMK AO2 SLP224 T00221017 $
KSTL 170251Z 11004KT 8SM SCT250 02/M01 A3018 RMK AO2 SLP228 T00221011 $
KSTL 170151Z 12005KT 10SM SCT250 03/M01 A3019 RMK AO2 SLP233 T00281011 $
KSTL 170051Z 11007KT 10SM FEW250 03/M01 A3019 RMK AO2 SLP233 T00281011
KSTL 162351Z 10006KT 10SM FEW250 03/M01 A3019 RMK AO2 SLP234 T00281011 10089 20028 56012
KSTL 162251Z 11007KT 10SM SCT180 SCT250 06/M01 A3020 RMK AO2 SLP234 T00611006
KSTL 162151Z 11007KT 10SM FEW170 BKN220 08/00 A3021 RMK AO2 SLP237 T00830000
KSTL 162051Z 13007KT 10SM FEW150 BKN220 08/M01 A3022 RMK AO2 SLP243 T00831006 56023
KSTL 161951Z 15004KT 10SM FEW150 BKN200 08/00 A3025 RMK AO2 SLP251 T00780000
KSTL 161851Z VRB03KT 10SM BKN250 08/00 A3026 RMK AO2 SLP256 T00830000
KSTL 161751Z 09005KT 10SM BKN250 07/M01 A3029 RMK AO2 SLP267 T00671006 10072 21028 58022
KSTL 161651Z 11005KT 10SM BKN250 06/00 A3033 RMK AO2 SLP280 T00560000
KSTL 161551Z 10006KT 8SM BKN250 04/M01 A3035 RMK AO2 SLP287 T00391006
KSTL 161451Z 10007KT 7SM BKN250 02/M01 A3036 RMK AO2 SLP290 T00221011 50000
KSTL 161351Z 10004KT 6SM BR BKN250 M01/M03 A3037 RMK AO2 SLP293 T10061028
KSTL 161251Z 11004KT 6SM BR SCT250 M02/M04 A3037 RMK AO2 SLP293 T10221044
KSTL 161151Z 00000KT 10SM CLR M03/M05 A3036 RMK AO2 SLP292 T10281050 10000 21033 51005
KSTL 161051Z 00000KT 10SM CLR M02/M05 A3036 RMK AO2 SLP289 T10221050
KSTL 160951Z 00000KT 9SM CLR M02/M04 A3035 RMK AO2 SLP287 T10221044
KSTL 160851Z 00000KT 10SM CLR M02/M04 A3035 RMK AO2 SLP285 T10171044 56006
KSTL 160751Z 00000KT 10SM CLR M02/M04 A3035 RMK AO2 SLP286 T10171044